createdAt,value
2018-03-09T00:00:20.771Z,0
2018-03-09T00:01:20.648Z,0
2018-03-09T00:02:20.663Z,0
2018-03-09T00:03:20.388Z,0
2018-03-09T00:04:20.126Z,0
2018-03-09T00:05:20.935Z,0
2018-03-09T00:06:20.123Z,0
2018-03-09T00:07:20.661Z,0
2018-03-09T00:08:20.372Z,0
2018-03-09T00:09:21.590Z,0
2018-03-09T00:10:20.941Z,0
2018-03-09T00:11:20.350Z,0
2018-03-09T00:12:20.334Z,0
2018-03-09T00:13:20.318Z,0
2018-03-09T00:14:20.579Z,0
2018-03-09T00:15:20.896Z,0
2018-03-09T00:16:20.319Z,0
2018-03-09T00:17:20.549Z,0
2018-03-09T00:18:20.050Z,0
2018-03-09T00:19:20.269Z,0
2018-03-09T00:20:20.677Z,0
2018-03-09T00:21:20.323Z,0
2018-03-09T00:22:20.252Z,0
2018-03-09T00:23:20.254Z,0
2018-03-09T00:24:21.045Z,0
2018-03-09T00:25:20.951Z,0
2018-03-09T00:26:20.501Z,0
2018-03-09T00:27:20.479Z,0
2018-03-09T00:28:20.206Z,0
2018-03-09T00:29:20.210Z,0
2018-03-09T00:30:20.831Z,0
2018-03-09T00:31:20.198Z,0
2018-03-09T00:32:19.693Z,0
2018-03-09T00:33:20.184Z,0
2018-03-09T00:34:20.410Z,0
2018-03-09T00:35:20.626Z,0
2018-03-09T00:36:19.631Z,0
2018-03-09T00:37:20.409Z,0
2018-03-09T00:38:20.184Z,0
2018-03-09T00:39:24.594Z,0
2018-03-09T00:40:20.619Z,0
2018-03-09T00:41:20.370Z,0
2018-03-09T00:42:20.434Z,0
2018-03-09T00:43:20.356Z,0
2018-03-09T00:44:20.087Z,0
2018-03-09T00:45:20.685Z,0
2018-03-09T00:46:20.066Z,0
2018-03-09T00:47:20.069Z,0
2018-03-09T00:48:20.351Z,0
2018-03-09T00:49:20.046Z,0
2018-03-09T00:50:20.461Z,0
2018-03-09T00:51:20.032Z,0
2018-03-09T00:52:20.281Z,0
2018-03-09T00:53:20.042Z,0
2018-03-09T00:54:20.264Z,0
2018-03-09T00:55:22.337Z,0
2018-03-09T00:56:20.249Z,0
2018-03-09T00:57:20.240Z,0
2018-03-09T00:58:19.970Z,0
2018-03-09T00:59:19.477Z,0
2018-03-09T01:00:21.560Z,0
2018-03-09T01:01:20.218Z,0
2018-03-09T01:02:19.936Z,0
2018-03-09T01:03:20.194Z,0
2018-03-09T01:04:20.192Z,0
2018-03-09T01:05:20.157Z,0
2018-03-09T01:06:19.671Z,0
2018-03-09T01:07:20.153Z,0
2018-03-09T01:08:20.148Z,0
2018-03-09T01:09:20.146Z,0
2018-03-09T01:10:22.513Z,0
2018-03-09T01:11:20.134Z,0
2018-03-09T01:12:20.129Z,0
2018-03-09T01:13:19.886Z,0
2018-03-09T01:14:20.118Z,0
2018-03-09T01:15:20.074Z,0
2018-03-09T01:16:20.097Z,0
2018-03-09T01:17:20.107Z,0
2018-03-09T01:18:20.093Z,0
2018-03-09T01:19:20.094Z,0
2018-03-09T01:20:20.635Z,0
2018-03-09T01:21:20.066Z,0
2018-03-09T01:22:19.814Z,0
2018-03-09T01:23:20.042Z,0
2018-03-09T01:24:19.786Z,0
2018-03-09T01:25:20.798Z,0
2018-03-09T01:26:19.767Z,0
2018-03-09T01:27:19.764Z,0
2018-03-09T01:28:19.506Z,0
2018-03-09T01:29:20.018Z,0
2018-03-09T01:30:20.248Z,0
2018-03-09T01:31:19.494Z,0
2018-03-09T01:32:19.987Z,0
2018-03-09T01:33:19.462Z,0
2018-03-09T01:34:19.966Z,0
2018-03-09T01:35:20.206Z,0
2018-03-09T01:36:19.542Z,0
2018-03-09T01:37:19.948Z,0
2018-03-09T01:38:19.436Z,0
2018-03-09T01:39:19.938Z,0
2018-03-09T01:40:22.604Z,0
2018-03-09T01:41:19.729Z,0
2018-03-09T01:42:19.663Z,0
2018-03-09T01:43:19.410Z,0
2018-03-09T01:44:19.905Z,0
2018-03-09T01:45:20.109Z,0
2018-03-09T01:46:19.890Z,0
2018-03-09T01:47:19.896Z,0
2018-03-09T01:48:19.877Z,0
2018-03-09T01:49:19.618Z,0
2018-03-09T01:50:20.494Z,0
2018-03-09T01:51:19.596Z,0
2018-03-09T01:52:19.592Z,0
2018-03-09T01:53:19.596Z,0
2018-03-09T01:54:19.572Z,0
2018-03-09T01:55:20.114Z,0
2018-03-09T01:56:20.619Z,0
2018-03-09T01:57:19.828Z,0
2018-03-09T01:58:18.781Z,0
2018-03-09T01:59:19.546Z,0
2018-03-09T02:00:20.004Z,0
2018-03-09T02:01:19.271Z,0
2018-03-09T02:02:19.525Z,0
2018-03-09T02:03:19.270Z,0
2018-03-09T02:04:19.244Z,0
2018-03-09T02:05:19.991Z,0
2018-03-09T02:06:19.746Z,0
2018-03-09T02:07:19.482Z,0
2018-03-09T02:08:19.477Z,0
2018-03-09T02:09:19.204Z,0
2018-03-09T02:10:20.663Z,0
2018-03-09T02:11:19.764Z,0
2018-03-09T02:12:19.199Z,0
2018-03-09T02:13:19.864Z,0
2018-03-09T02:14:19.709Z,0
2018-03-09T02:15:20.244Z,0
2018-03-09T02:16:19.455Z,0
2018-03-09T02:17:19.665Z,0
2018-03-09T02:18:19.400Z,0
2018-03-09T02:19:19.637Z,0
2018-03-09T02:20:20.049Z,0
2018-03-09T02:21:19.633Z,0
2018-03-09T02:22:19.385Z,0
2018-03-09T02:23:19.628Z,0
2018-03-09T02:24:19.357Z,0
2018-03-09T02:25:20.545Z,0
2018-03-09T02:26:20.448Z,0
2018-03-09T02:27:19.590Z,0
2018-03-09T02:28:19.397Z,0
2018-03-09T02:29:19.568Z,0
2018-03-09T02:30:20.286Z,0
2018-03-09T02:31:19.579Z,0
2018-03-09T02:32:19.317Z,0
2018-03-09T02:33:19.048Z,0
2018-03-09T02:34:19.294Z,0
2018-03-09T02:35:20.769Z,0
2018-03-09T02:36:19.278Z,0
2018-03-09T02:37:19.258Z,0
2018-03-09T02:38:19.542Z,0
2018-03-09T02:39:19.513Z,0
2018-03-09T02:40:20.078Z,0
2018-03-09T02:41:21.149Z,0
2018-03-09T02:42:18.978Z,0
2018-03-09T02:43:19.228Z,0
2018-03-09T02:44:19.475Z,0
2018-03-09T02:45:19.339Z,0
2018-03-09T02:46:19.486Z,0
2018-03-09T02:47:19.317Z,0
2018-03-09T02:48:19.475Z,0
2018-03-09T02:49:19.203Z,0
2018-03-09T02:50:19.815Z,0
2018-03-09T02:51:19.167Z,0
2018-03-09T02:52:18.918Z,0
2018-03-09T02:53:19.155Z,0
2018-03-09T02:54:19.409Z,0
2018-03-09T02:55:20.228Z,0
2018-03-09T02:56:19.398Z,0
2018-03-09T02:57:20.645Z,0
2018-03-09T02:58:19.374Z,0
2018-03-09T02:59:18.882Z,0
2018-03-09T03:00:19.859Z,0
2018-03-09T03:01:18.868Z,0
2018-03-09T03:02:19.090Z,0
2018-03-09T03:03:19.089Z,0
2018-03-09T03:04:19.073Z,0
2018-03-09T03:05:20.240Z,0
2018-03-09T03:06:19.309Z,0
2018-03-09T03:07:18.802Z,0
2018-03-09T03:08:18.535Z,0
2018-03-09T03:09:19.062Z,0
2018-03-09T03:10:19.345Z,0
2018-03-09T03:11:19.296Z,0
2018-03-09T03:12:19.312Z,0
2018-03-09T03:13:18.794Z,0
2018-03-09T03:14:19.284Z,0
2018-03-09T03:15:19.583Z,0
2018-03-09T03:16:18.751Z,0
2018-03-09T03:17:19.236Z,0
2018-03-09T03:18:19.233Z,0
2018-03-09T03:19:19.223Z,0
2018-03-09T03:20:20.506Z,0
2018-03-09T03:21:19.210Z,0
2018-03-09T03:22:19.210Z,0
2018-03-09T03:23:18.684Z,0
2018-03-09T03:24:18.938Z,0
2018-03-09T03:25:20.463Z,0
2018-03-09T03:26:19.178Z,0
2018-03-09T03:27:19.736Z,0
2018-03-09T03:28:18.668Z,0
2018-03-09T03:29:19.148Z,0
2018-03-09T03:30:19.658Z,0
2018-03-09T03:31:19.158Z,0
2018-03-09T03:32:18.934Z,0
2018-03-09T03:33:19.186Z,0
2018-03-09T03:34:19.122Z,0
2018-03-09T03:35:19.473Z,0
2018-03-09T03:36:19.104Z,0
2018-03-09T03:37:19.103Z,0
2018-03-09T03:38:18.833Z,0
2018-03-09T03:39:19.078Z,0
2018-03-09T03:40:19.281Z,0
2018-03-09T03:41:19.067Z,0
2018-03-09T03:42:19.391Z,0
2018-03-09T03:43:18.800Z,0
2018-03-09T03:44:19.039Z,0
2018-03-09T03:45:19.222Z,0
2018-03-09T03:46:19.033Z,0
2018-03-09T03:47:18.511Z,0
2018-03-09T03:48:18.752Z,0
2018-03-09T03:49:19.019Z,0
2018-03-09T03:50:18.825Z,0
2018-03-09T03:51:18.739Z,0
2018-03-09T03:52:18.983Z,0
2018-03-09T03:53:18.975Z,0
2018-03-09T03:54:18.967Z,0
2018-03-09T03:55:18.984Z,0
2018-03-09T03:56:18.953Z,0
2018-03-09T03:57:19.768Z,0
2018-03-09T03:58:18.953Z,0
2018-03-09T03:59:18.936Z,0
2018-03-09T04:00:20.112Z,0
2018-03-09T04:01:18.157Z,0
2018-03-09T04:02:18.668Z,0
2018-03-09T04:03:18.915Z,0
2018-03-09T04:04:18.383Z,0
2018-03-09T04:05:19.471Z,0
2018-03-09T04:06:18.631Z,0
2018-03-09T04:07:18.889Z,0
2018-03-09T04:08:18.863Z,0
2018-03-09T04:09:18.856Z,0
2018-03-09T04:10:19.773Z,0
2018-03-09T04:11:18.856Z,0
2018-03-09T04:12:18.586Z,0
2018-03-09T04:13:19.649Z,0
2018-03-09T04:14:18.576Z,0
2018-03-09T04:15:19.214Z,0
2018-03-09T04:16:18.814Z,0
2018-03-09T04:17:18.816Z,0
2018-03-09T04:18:18.799Z,0
2018-03-09T04:19:18.546Z,0
2018-03-09T04:20:19.728Z,0
2018-03-09T04:21:18.769Z,0
2018-03-09T04:22:18.254Z,0
2018-03-09T04:23:18.515Z,0
2018-03-09T04:24:18.496Z,0
2018-03-09T04:25:19.094Z,0
2018-03-09T04:26:18.759Z,0
2018-03-09T04:27:18.724Z,0
2018-03-09T04:28:20.421Z,0
2018-03-09T04:29:18.721Z,0
2018-03-09T04:30:18.994Z,0
2018-03-09T04:31:18.704Z,0
2018-03-09T04:32:18.694Z,0
2018-03-09T04:33:18.524Z,0
2018-03-09T04:34:18.675Z,0
2018-03-09T04:35:19.071Z,0
2018-03-09T04:36:18.734Z,0
2018-03-09T04:37:18.744Z,0
2018-03-09T04:38:18.652Z,0
2018-03-09T04:39:18.139Z,0
2018-03-09T04:40:18.946Z,0
2018-03-09T04:41:18.393Z,0
2018-03-09T04:42:18.384Z,0
2018-03-09T04:43:19.458Z,0
2018-03-09T04:44:18.382Z,0
2018-03-09T04:45:19.151Z,0
2018-03-09T04:46:18.585Z,0
2018-03-09T04:47:18.327Z,0
2018-03-09T04:48:18.324Z,0
2018-03-09T04:49:18.581Z,0
2018-03-09T04:50:19.013Z,0
2018-03-09T04:51:18.316Z,0
2018-03-09T04:52:18.308Z,0
2018-03-09T04:53:18.315Z,0
2018-03-09T04:54:18.041Z,0
2018-03-09T04:55:18.748Z,0
2018-03-09T04:56:18.277Z,0
2018-03-09T04:57:18.272Z,0
2018-03-09T04:58:19.060Z,0
2018-03-09T04:59:18.495Z,0
2018-03-09T05:00:18.950Z,0
2018-03-09T05:01:18.505Z,0
2018-03-09T05:02:18.488Z,0
2018-03-09T05:03:18.224Z,0
2018-03-09T05:04:18.235Z,0
2018-03-09T05:05:19.208Z,0
2018-03-09T05:06:18.220Z,0
2018-03-09T05:07:18.453Z,0
2018-03-09T05:08:17.944Z,0
2018-03-09T05:09:17.920Z,0
2018-03-09T05:10:19.271Z,0
2018-03-09T05:11:18.164Z,0
2018-03-09T05:12:18.463Z,0
2018-03-09T05:13:18.593Z,0
2018-03-09T05:14:18.142Z,0
2018-03-09T05:15:18.921Z,0
2018-03-09T05:16:17.869Z,0
2018-03-09T05:17:18.368Z,0
2018-03-09T05:18:18.382Z,0
2018-03-09T05:19:18.113Z,0
2018-03-09T05:20:18.408Z,0
2018-03-09T05:21:18.098Z,0
2018-03-09T05:22:18.084Z,0
2018-03-09T05:23:18.322Z,0
2018-03-09T05:24:18.057Z,0
2018-03-09T05:25:19.301Z,0
2018-03-09T05:26:18.069Z,0
2018-03-09T05:27:18.054Z,0
2018-03-09T05:28:18.033Z,0
2018-03-09T05:29:18.881Z,0
2018-03-09T05:30:18.660Z,0
2018-03-09T05:31:18.010Z,0
2018-03-09T05:32:18.006Z,0
2018-03-09T05:33:18.022Z,0
2018-03-09T05:34:17.995Z,0
2018-03-09T05:35:18.188Z,0
2018-03-09T05:36:18.012Z,0
2018-03-09T05:37:17.971Z,0
2018-03-09T05:38:18.231Z,0
2018-03-09T05:39:17.952Z,0
2018-03-09T05:40:18.662Z,0
2018-03-09T05:41:17.701Z,0
2018-03-09T05:42:18.189Z,0
2018-03-09T05:43:17.971Z,0
2018-03-09T05:44:18.676Z,0
2018-03-09T05:45:18.508Z,0
2018-03-09T05:46:18.161Z,0
2018-03-09T05:47:17.657Z,0
2018-03-09T05:48:18.149Z,0
2018-03-09T05:49:18.257Z,0
2018-03-09T05:50:18.447Z,0
2018-03-09T05:51:17.884Z,0
2018-03-09T05:52:17.612Z,0
2018-03-09T05:53:17.856Z,5
2018-03-09T05:54:17.843Z,5
2018-03-09T05:55:18.164Z,5
2018-03-09T05:56:17.831Z,5
2018-03-09T05:57:17.831Z,5
2018-03-09T05:58:17.596Z,5
2018-03-09T05:59:22.269Z,5
2018-03-09T06:00:19.091Z,5
2018-03-09T06:01:17.792Z,5
2018-03-09T06:02:18.086Z,10
2018-03-09T06:03:17.789Z,10
2018-03-09T06:04:18.033Z,10
2018-03-09T06:05:18.270Z,10
2018-03-09T06:06:18.041Z,10
2018-03-09T06:07:17.760Z,10
2018-03-09T06:08:17.757Z,10
2018-03-09T06:09:17.756Z,10
2018-03-09T06:10:18.980Z,10
2018-03-09T06:11:17.982Z,10
2018-03-09T06:12:17.719Z,10
2018-03-09T06:13:17.976Z,15
2018-03-09T06:14:20.858Z,15
2018-03-09T06:15:18.800Z,15
2018-03-09T06:16:17.953Z,15
2018-03-09T06:17:17.693Z,15
2018-03-09T06:18:17.938Z,15
2018-03-09T06:27:40.552Z,25
2018-03-09T06:28:39.971Z,25
2018-03-09T06:29:39.725Z,25
2018-03-09T06:30:40.463Z,25
2018-03-09T06:31:40.451Z,25
2018-03-09T06:32:40.433Z,25
2018-03-09T06:33:39.943Z,25
2018-03-09T06:34:40.415Z,25
2018-03-09T06:35:39.917Z,30
2018-03-09T06:36:40.151Z,30
2018-03-09T06:37:40.389Z,30
2018-03-09T06:38:40.398Z,30
2018-03-09T06:39:40.369Z,35
2018-03-09T06:40:40.370Z,35
2018-03-09T06:41:40.101Z,40
2018-03-09T06:42:40.100Z,40
2018-03-09T06:43:40.360Z,45
2018-03-09T06:44:39.841Z,45
2018-03-09T06:45:40.340Z,45
2018-03-09T06:46:40.377Z,50
2018-03-09T06:47:41.885Z,50
2018-03-09T06:48:40.303Z,55
2018-03-09T06:49:40.035Z,55
2018-03-09T06:50:40.295Z,60
2018-03-09T06:51:40.292Z,65
2018-03-09T06:52:40.020Z,70
2018-03-09T06:53:40.287Z,75
2018-03-09T06:54:40.017Z,75
2018-03-09T06:55:40.014Z,70
2018-03-09T06:56:40.005Z,70
2018-03-09T06:57:39.733Z,65
2018-03-09T06:58:39.981Z,65
2018-03-09T06:59:39.495Z,65
2018-03-09T07:00:39.968Z,65
2018-03-09T07:01:39.964Z,65
2018-03-09T07:02:41.855Z,70
2018-03-09T07:03:40.215Z,70
2018-03-09T07:04:40.221Z,70
2018-03-09T07:05:39.687Z,70
2018-03-09T07:06:40.214Z,70
2018-03-09T07:07:39.921Z,70
2018-03-09T07:08:39.974Z,65
2018-03-09T07:09:39.914Z,65
2018-03-09T07:10:40.198Z,65
2018-03-09T07:11:40.161Z,60
2018-03-09T07:12:39.896Z,60
2018-03-09T07:13:39.896Z,60
2018-03-09T07:14:39.876Z,65
2018-03-09T07:15:40.118Z,60
2018-03-09T07:16:39.865Z,60
2018-03-09T07:17:42.011Z,60
2018-03-09T07:18:39.596Z,55
2018-03-09T07:19:39.832Z,55
2018-03-09T07:20:39.326Z,60
2018-03-09T07:21:40.071Z,65
2018-03-09T07:22:39.814Z,65
2018-03-09T07:23:39.825Z,65
2018-03-09T07:24:39.823Z,70
2018-03-09T07:25:40.052Z,75
2018-03-09T07:26:39.790Z,80
2018-03-09T07:27:39.812Z,85
2018-03-09T07:28:39.784Z,85
2018-03-09T07:29:40.033Z,85
2018-03-09T07:30:40.057Z,85
2018-03-09T07:31:39.594Z,80
2018-03-09T07:32:42.839Z,70
2018-03-09T07:33:40.087Z,65
2018-03-09T07:34:40.011Z,60
2018-03-09T07:35:40.008Z,55
2018-03-09T07:36:39.485Z,55
2018-03-09T07:37:39.984Z,55
2018-03-09T07:38:39.985Z,55
2018-03-09T07:39:39.980Z,55
2018-03-09T07:40:39.801Z,60
2018-03-09T07:41:39.968Z,60
2018-03-09T07:42:39.958Z,65
2018-03-09T07:43:39.794Z,70
2018-03-09T07:44:39.477Z,75
2018-03-09T07:45:39.693Z,75
2018-03-09T07:46:39.954Z,75
2018-03-09T07:47:40.721Z,75
2018-03-09T07:48:39.668Z,75
2018-03-09T07:49:39.912Z,80
2018-03-09T07:50:39.671Z,80
2018-03-09T07:51:39.954Z,80
2018-03-09T07:52:39.388Z,80
2018-03-09T07:53:39.654Z,75
2018-03-09T07:54:39.891Z,75
2018-03-09T07:55:39.676Z,70
2018-03-09T07:56:39.666Z,70
2018-03-09T07:57:39.674Z,70
2018-03-09T07:58:39.905Z,70
2018-03-09T07:59:39.395Z,75
2018-03-09T08:00:39.446Z,75
2018-03-09T08:01:39.886Z,80
2018-03-09T08:02:39.876Z,80
2018-03-09T08:03:39.919Z,80
2018-03-09T08:04:39.663Z,80
2018-03-09T08:05:39.093Z,80
2018-03-09T08:06:39.669Z,75
2018-03-09T08:07:39.603Z,75
2018-03-09T08:08:39.845Z,75
2018-03-09T08:09:39.328Z,70
2018-03-09T08:10:39.327Z,70
2018-03-09T08:11:39.638Z,65
2018-03-09T08:12:39.297Z,65
2018-03-09T08:13:39.299Z,70
2018-03-09T08:14:39.821Z,70
2018-03-09T08:15:39.540Z,80
2018-03-09T08:16:39.285Z,95
2018-03-09T08:17:39.609Z,105
2018-03-09T08:18:41.082Z,120
2018-03-09T08:19:39.272Z,135
2018-03-09T08:20:39.771Z,145
2018-03-09T08:21:39.903Z,150
2018-03-09T08:22:39.506Z,155
2018-03-09T08:23:39.904Z,160
2018-03-09T08:24:39.773Z,165
2018-03-09T08:25:39.751Z,165
2018-03-09T08:26:39.566Z,165
2018-03-09T08:27:39.744Z,170
2018-03-09T08:28:39.246Z,170
2018-03-09T08:29:39.471Z,175
2018-03-09T08:30:39.466Z,180
2018-03-09T08:31:39.462Z,180
2018-03-09T08:32:39.833Z,180
2018-03-09T08:33:40.045Z,180
2018-03-09T08:34:39.445Z,185
2018-03-09T08:35:39.204Z,185
2018-03-09T08:36:39.743Z,185
2018-03-09T08:37:39.199Z,180
2018-03-09T08:38:39.433Z,180
2018-03-09T08:39:39.684Z,175
2018-03-09T08:40:39.169Z,170
2018-03-09T08:41:39.685Z,170
2018-03-09T08:42:39.152Z,160
2018-03-09T08:43:39.423Z,160
2018-03-09T08:44:39.659Z,160
2018-03-09T08:45:39.416Z,160
2018-03-09T08:46:39.497Z,165
2018-03-09T08:47:39.727Z,170
2018-03-09T08:48:41.248Z,170
2018-03-09T08:49:39.647Z,165
2018-03-09T08:50:39.385Z,165
2018-03-09T08:51:39.640Z,160
2018-03-09T08:52:39.633Z,160
2018-03-09T08:53:39.365Z,165
2018-03-09T08:54:39.624Z,165
2018-03-09T08:55:39.105Z,170
2018-03-09T08:56:39.676Z,175
2018-03-09T08:57:39.348Z,180
2018-03-09T08:58:39.489Z,185
2018-03-09T08:59:39.404Z,180
2018-03-09T09:00:39.604Z,180
2018-03-09T09:01:39.351Z,175
2018-03-09T09:02:39.591Z,170
2018-03-09T09:03:40.127Z,165
2018-03-09T09:04:39.688Z,160
2018-03-09T09:05:39.577Z,155
2018-03-09T09:06:39.133Z,150
2018-03-09T09:07:39.575Z,150
2018-03-09T09:08:39.505Z,155
2018-03-09T09:09:39.351Z,155
2018-03-09T09:10:39.554Z,165
2018-03-09T09:11:39.639Z,165
2018-03-09T09:12:39.300Z,165
2018-03-09T09:13:39.781Z,165
2018-03-09T09:14:39.577Z,165
2018-03-09T09:15:39.302Z,170
2018-03-09T09:16:39.543Z,170
2018-03-09T09:17:39.279Z,175
2018-03-09T09:18:39.532Z,175
2018-03-09T09:19:40.039Z,175
2018-03-09T09:20:39.278Z,185
2018-03-09T09:21:39.529Z,190
2018-03-09T09:22:39.521Z,190
2018-03-09T09:23:39.710Z,195
2018-03-09T09:24:39.274Z,190
2018-03-09T09:25:39.264Z,190
2018-03-09T09:26:39.514Z,185
2018-03-09T09:27:39.066Z,185
2018-03-09T09:28:39.261Z,180
2018-03-09T09:29:40.317Z,175
2018-03-09T09:30:39.510Z,175
2018-03-09T09:31:39.264Z,175
2018-03-09T09:32:39.245Z,180
2018-03-09T09:33:39.497Z,180
2018-03-09T09:34:40.002Z,185
2018-03-09T09:35:39.033Z,190
2018-03-09T09:36:39.240Z,190
2018-03-09T09:37:39.235Z,195
2018-03-09T09:38:39.286Z,195
2018-03-09T09:39:39.483Z,205
2018-03-09T09:40:39.483Z,200
2018-03-09T09:41:39.499Z,200
2018-03-09T09:42:39.238Z,205
2018-03-09T09:43:39.670Z,200
2018-03-09T09:44:39.213Z,195
2018-03-09T09:45:39.476Z,195
2018-03-09T09:46:39.475Z,195
2018-03-09T09:47:39.466Z,200
2018-03-09T09:48:39.509Z,205
2018-03-09T09:49:39.920Z,205
2018-03-09T09:50:38.954Z,205
2018-03-09T09:51:39.208Z,200
2018-03-09T09:52:39.500Z,200
2018-03-09T09:53:39.463Z,200
2018-03-09T09:54:39.452Z,200
2018-03-09T09:55:39.459Z,205
2018-03-09T09:56:39.189Z,205
2018-03-09T09:57:39.219Z,205
2018-03-09T09:58:39.458Z,200
2018-03-09T09:59:39.499Z,200
2018-03-09T10:00:39.466Z,195
2018-03-09T10:01:39.446Z,190
2018-03-09T10:02:39.446Z,185
2018-03-09T10:03:39.195Z,180
2018-03-09T10:04:40.012Z,175
2018-03-09T10:05:38.938Z,170
2018-03-09T10:06:39.190Z,165
2018-03-09T10:07:38.988Z,165
2018-03-09T10:08:38.667Z,160
2018-03-09T10:09:40.235Z,155
2018-03-09T10:10:39.166Z,150
2018-03-09T10:11:39.432Z,150
2018-03-09T10:12:38.913Z,150
2018-03-09T10:13:39.171Z,150
2018-03-09T10:14:38.922Z,150
2018-03-09T10:15:39.164Z,145
2018-03-09T10:16:39.428Z,145
2018-03-09T10:17:39.171Z,145
2018-03-09T10:18:39.494Z,150
2018-03-09T10:19:41.821Z,155
2018-03-09T10:20:39.167Z,165
2018-03-09T10:21:39.204Z,170
2018-03-09T10:22:38.652Z,180
2018-03-09T10:23:38.944Z,190
2018-03-09T10:24:39.167Z,195
2018-03-09T10:25:39.423Z,195
2018-03-09T10:26:39.234Z,200
2018-03-09T10:27:39.162Z,205
2018-03-09T10:28:39.415Z,210
2018-03-09T10:58:36.111Z,250
2018-03-09T10:59:35.851Z,250
2018-03-09T11:00:35.893Z,250
2018-03-09T11:01:35.857Z,255
2018-03-09T11:02:36.079Z,260
2018-03-09T11:03:35.817Z,260
2018-03-09T11:04:35.568Z,260
2018-03-09T11:05:35.809Z,260
2018-03-09T11:06:35.546Z,265
2018-03-09T11:07:36.065Z,275
2018-03-09T11:08:36.068Z,280
2018-03-09T11:09:35.799Z,280
2018-03-09T11:10:35.800Z,280
2018-03-09T11:11:35.532Z,280
2018-03-09T11:12:35.795Z,280
2018-03-09T11:13:36.551Z,285
2018-03-09T11:14:35.829Z,285
2018-03-09T11:15:35.824Z,285
2018-03-09T11:16:35.792Z,290
2018-03-09T11:17:36.044Z,290
2018-03-09T11:18:35.795Z,285
2018-03-09T11:19:35.626Z,275
2018-03-09T11:20:36.053Z,270
2018-03-09T11:21:36.046Z,270
2018-03-09T11:22:35.795Z,260
2018-03-09T11:23:35.780Z,255
2018-03-09T11:24:36.044Z,245
2018-03-09T11:25:35.814Z,245
2018-03-09T11:26:35.787Z,250
2018-03-09T11:27:36.051Z,250
2018-03-09T11:28:36.590Z,245
2018-03-09T11:29:35.284Z,235
2018-03-09T11:30:35.784Z,220
2018-03-09T11:31:35.819Z,195
2018-03-09T11:32:36.109Z,175
2018-03-09T11:33:35.781Z,160
2018-03-09T11:34:35.798Z,145
2018-03-09T11:35:35.781Z,140
2018-03-09T11:36:35.537Z,140
2018-03-09T11:37:35.789Z,135
2018-03-09T11:38:35.537Z,130
2018-03-09T11:39:36.054Z,125
2018-03-09T11:40:35.801Z,125
2018-03-09T11:41:35.824Z,115
2018-03-09T11:42:35.559Z,105
2018-03-09T11:43:35.800Z,95
2018-03-09T11:44:36.054Z,90
2018-03-09T11:45:35.282Z,90
2018-03-09T11:46:35.542Z,90
2018-03-09T11:47:35.536Z,85
2018-03-09T11:48:36.052Z,80
2018-03-09T11:49:35.804Z,85
2018-03-09T11:50:36.060Z,85
2018-03-09T11:51:35.552Z,90
2018-03-09T11:52:36.062Z,90
2018-03-09T11:53:35.804Z,95
2018-03-09T11:54:35.816Z,95
2018-03-09T11:55:36.060Z,95
2018-03-09T11:56:35.804Z,90
2018-03-09T11:57:35.289Z,90
2018-03-09T11:58:37.048Z,85
2018-03-09T11:59:35.283Z,80
2018-03-09T12:00:35.786Z,75
2018-03-09T12:01:36.057Z,80
2018-03-09T12:02:35.542Z,75
2018-03-09T12:03:35.275Z,70
2018-03-09T12:04:35.813Z,70
2018-03-09T12:05:35.801Z,75
2018-03-09T12:06:35.537Z,75
2018-03-09T12:07:36.044Z,75
2018-03-09T12:08:35.537Z,75
2018-03-09T12:09:36.042Z,80
2018-03-09T12:10:36.040Z,80
2018-03-09T12:11:35.783Z,80
2018-03-09T12:12:35.792Z,85
2018-03-09T12:13:35.397Z,85
2018-03-09T12:14:35.779Z,85
2018-03-09T12:15:35.783Z,90
2018-03-09T12:16:36.045Z,100
2018-03-09T12:17:35.531Z,105
2018-03-09T12:18:35.780Z,105
2018-03-09T12:19:35.528Z,105
2018-03-09T12:20:35.523Z,105
2018-03-09T12:21:35.796Z,105
2018-03-09T12:22:35.516Z,110
2018-03-09T12:23:36.046Z,115
2018-03-09T12:24:35.772Z,125
2018-03-09T12:25:35.803Z,140
2018-03-09T12:26:36.026Z,150
2018-03-09T12:27:36.036Z,165
2018-03-09T12:28:36.339Z,180
2018-03-09T12:29:35.784Z,185
2018-03-09T12:30:36.024Z,175
2018-03-09T12:31:35.765Z,170
2018-03-09T12:32:36.100Z,175
2018-03-09T12:33:35.008Z,180
2018-03-09T12:34:35.767Z,180
2018-03-09T12:35:35.780Z,180
2018-03-09T12:36:35.801Z,180
2018-03-09T12:37:35.785Z,170
2018-03-09T12:38:35.759Z,160
2018-03-09T12:39:35.764Z,150
2018-03-09T12:40:36.032Z,145
2018-03-09T12:41:36.023Z,150
2018-03-09T12:42:35.760Z,155
2018-03-09T12:43:35.767Z,165
2018-03-09T12:44:35.741Z,180
2018-03-09T12:45:35.748Z,190
2018-03-09T12:46:36.001Z,195
2018-03-09T12:47:35.740Z,200
2018-03-09T12:48:36.010Z,205
2018-03-09T12:49:35.746Z,210
2018-03-09T12:50:35.999Z,220
2018-03-09T12:51:35.738Z,230
2018-03-09T12:52:35.748Z,240
2018-03-09T12:53:35.741Z,245
2018-03-09T12:54:35.991Z,250
2018-03-09T12:55:35.487Z,260
2018-03-09T12:56:35.739Z,270
2018-03-09T12:57:35.992Z,270
2018-03-09T12:58:39.500Z,265
2018-03-09T12:59:35.487Z,260
2018-03-09T13:00:35.995Z,255
2018-03-09T13:01:35.296Z,250
2018-03-09T13:02:35.736Z,250
2018-03-09T13:03:35.213Z,250
2018-03-09T13:04:35.728Z,245
2018-03-09T13:05:35.739Z,240
2018-03-09T13:06:35.731Z,240
2018-03-09T13:07:35.515Z,230
2018-03-09T13:08:35.992Z,215
2018-03-09T13:09:35.983Z,215
2018-03-09T13:10:35.731Z,210
2018-03-09T13:11:35.619Z,205
2018-03-09T13:12:35.738Z,205
2018-03-09T13:13:35.731Z,200
2018-03-09T13:14:35.782Z,200
2018-03-09T13:15:35.728Z,205
2018-03-09T13:16:35.982Z,205
2018-03-09T13:17:35.732Z,205
2018-03-09T13:18:35.699Z,205
2018-03-09T13:19:35.444Z,210
2018-03-09T13:20:35.698Z,215
2018-03-09T13:21:36.024Z,215
2018-03-09T13:22:35.702Z,215
2018-03-09T13:23:35.996Z,220
2018-03-09T13:24:35.429Z,215
2018-03-09T13:25:35.691Z,220
2018-03-09T13:26:35.948Z,215
2018-03-09T13:27:35.691Z,210
2018-03-09T13:28:35.953Z,215
2018-03-09T13:29:35.988Z,220
2018-03-09T13:30:35.950Z,225
2018-03-09T13:31:35.684Z,230
2018-03-09T13:32:35.954Z,235
2018-03-09T13:33:35.697Z,235
2018-03-09T13:34:35.449Z,235
2018-03-09T13:35:35.694Z,235
2018-03-09T13:36:35.717Z,235
2018-03-09T13:37:35.444Z,235
2018-03-09T13:38:35.962Z,235
2018-03-09T13:39:36.516Z,235
2018-03-09T13:40:35.460Z,235
2018-03-09T13:41:35.696Z,230
2018-03-09T13:42:35.949Z,215
2018-03-09T13:43:35.709Z,210
2018-03-09T13:44:35.706Z,205
2018-03-09T13:45:35.445Z,195
2018-03-09T13:46:35.444Z,190
2018-03-09T13:47:35.464Z,185
2018-03-09T13:48:35.446Z,175
2018-03-09T13:49:35.965Z,165
2018-03-09T13:50:35.701Z,165
2018-03-09T13:51:35.703Z,160
2018-03-09T13:52:35.709Z,160
2018-03-09T13:53:35.703Z,165
2018-03-09T13:54:35.698Z,165
2018-03-09T13:55:35.441Z,165
2018-03-09T13:56:35.995Z,165
2018-03-09T13:57:35.714Z,170
2018-03-09T13:58:35.711Z,170
2018-03-09T13:59:37.165Z,170
2018-03-09T14:00:35.711Z,165
2018-03-09T14:01:35.965Z,160
2018-03-09T14:02:35.457Z,155
2018-03-09T14:03:36.015Z,150
2018-03-09T14:04:35.723Z,150
2018-03-09T14:05:35.709Z,150
2018-03-09T14:06:35.712Z,150
2018-03-09T14:07:35.713Z,145
2018-03-09T14:08:35.814Z,145
2018-03-09T14:09:35.984Z,145
2018-03-09T14:10:35.203Z,150
2018-03-09T14:11:35.974Z,150
2018-03-09T14:12:35.717Z,150
2018-03-09T14:13:35.736Z,145
2018-03-09T14:14:36.731Z,140
2018-03-09T14:15:35.465Z,140
2018-03-09T14:16:35.721Z,140
2018-03-09T14:17:35.727Z,140
2018-03-09T14:18:35.978Z,140
2018-03-09T14:19:35.976Z,140
2018-03-09T14:20:36.761Z,140
2018-03-09T14:21:35.974Z,140
2018-03-09T14:22:35.465Z,140
2018-03-09T14:23:35.979Z,135
2018-03-09T14:24:35.465Z,135
2018-03-09T14:25:35.722Z,135
2018-03-09T14:26:35.719Z,135
2018-03-09T14:27:35.981Z,140
2018-03-09T14:28:35.981Z,135
2018-03-09T14:29:35.470Z,135
2018-03-09T14:30:35.975Z,140
2018-03-09T14:31:35.728Z,140
2018-03-09T14:32:35.723Z,140
2018-03-09T14:33:35.984Z,140
2018-03-09T14:34:35.986Z,145
2018-03-09T14:35:35.724Z,145
2018-03-09T14:36:35.755Z,140
2018-03-09T14:37:35.476Z,135
2018-03-09T14:38:35.721Z,135
2018-03-09T14:39:35.726Z,130
2018-03-09T14:40:35.732Z,125
2018-03-09T14:41:35.722Z,125
2018-03-09T14:42:35.977Z,130
2018-03-09T14:43:35.472Z,140
2018-03-09T14:44:36.080Z,145
2018-03-09T14:45:35.674Z,155
2018-03-09T14:46:35.724Z,155
2018-03-09T14:47:35.991Z,160
2018-03-09T14:48:35.220Z,165
2018-03-09T14:49:35.468Z,165
2018-03-09T14:50:35.725Z,165
2018-03-09T14:51:35.978Z,160
2018-03-09T14:52:35.994Z,155
2018-03-09T14:53:35.471Z,155